createdAt,value
2023-08-15T00:01:14.036Z,100599.66
2023-08-15T00:04:18.454Z,100604.97
2023-08-15T00:07:21.721Z,100593.19
2023-08-15T00:10:25.391Z,100600.13
2023-08-15T00:13:28.961Z,100594.19
2023-08-15T00:16:32.340Z,100602.94
2023-08-15T00:19:34.979Z,100599.66
2023-08-15T00:22:38.353Z,100599.09
2023-08-15T00:25:41.553Z,100595.56
2023-08-15T00:28:44.266Z,100588.38
2023-08-15T00:31:48.235Z,100594.31
2023-08-15T00:34:55.093Z,100591.81
2023-08-15T00:37:57.963Z,100583.59
2023-08-15T00:41:07.784Z,100585.31
2023-08-15T00:44:14.259Z,100586.66
2023-08-15T00:47:18.613Z,100579.69
2023-08-15T00:50:23.181Z,100582.59
2023-08-15T00:53:32.999Z,100586.41
2023-08-15T00:56:37.257Z,100581.44
2023-08-15T00:59:44.545Z,100588.38
2023-08-15T01:02:48.047Z,100589.19
2023-08-15T01:05:51.155Z,100588.25
2023-08-15T01:08:58.379Z,100591.94
2023-08-15T01:12:12.336Z,100594.78
2023-08-15T01:15:25.293Z,100585.69
2023-08-15T01:18:44.054Z,100584.69
2023-08-15T01:21:50.743Z,100591.16
2023-08-15T01:24:54.978Z,100588.03
2023-08-15T01:28:06.350Z,100588.03
2023-08-15T01:31:32.087Z,100586.03
2023-08-15T01:34:47.834Z,100586.06
2023-08-15T01:38:00.700Z,100581.91
2023-08-15T01:41:08.350Z,100586.72
2023-08-15T01:44:13.528Z,100588.19
2023-08-15T01:47:16.939Z,100587.06
2023-08-15T01:50:26.481Z,100584.56
2023-08-15T01:53:30.673Z,100582.56
2023-08-15T01:56:35.128Z,100587.53
2023-08-15T01:59:40.060Z,100589.37
2023-08-15T02:02:48.599Z,100579.94
2023-08-15T02:05:52.269Z,100589.75
2023-08-15T02:08:57.021Z,100582.63
2023-08-15T02:12:01.154Z,100576.00
2023-08-15T02:15:09.557Z,100583.41
2023-08-15T02:18:13.202Z,100587.53
2023-08-15T02:21:16.558Z,100578.59
2023-08-15T02:24:19.759Z,100576.56
2023-08-15T02:27:22.510Z,100575.94
2023-08-15T02:30:28.072Z,100572.75
2023-08-15T02:33:30.776Z,100567.75
2023-08-15T02:36:35.305Z,100583.66
2023-08-15T02:39:43.255Z,100577.75
2023-08-15T02:42:47.131Z,100581.88
2023-08-15T02:45:55.263Z,100579.41
2023-08-15T02:48:58.120Z,100575.63
2023-08-15T02:52:06.436Z,100582.22
2023-08-15T02:55:14.472Z,100580.59
2023-08-15T02:58:17.549Z,100579.28
2023-08-15T03:01:20.260Z,100584.78
2023-08-15T03:04:24.843Z,100582.97
2023-08-15T03:07:29.704Z,100584.62
2023-08-15T03:10:36.982Z,100587.13
2023-08-15T03:13:40.124Z,100590.13
2023-08-15T03:16:44.297Z,100580.81
2023-08-15T03:19:47.203Z,100582.47
2023-08-15T03:22:50.146Z,100580.16
2023-08-15T03:26:01.959Z,100587.62
2023-08-15T03:29:06.607Z,100581.66
2023-08-15T03:32:10.062Z,100576.19
2023-08-15T03:35:17.002Z,100574.84
2023-08-15T03:38:23.124Z,100583.00
2023-08-15T03:41:28.300Z,100577.00
2023-08-15T03:44:31.703Z,100578.16
2023-08-15T03:47:34.163Z,100581.97
2023-08-15T03:50:39.158Z,100577.50
2023-08-15T03:53:44.627Z,100581.50
2023-08-15T03:56:47.859Z,100586.44
2023-08-15T03:59:50.963Z,100584.62
2023-08-15T04:02:53.807Z,100589.25
2023-08-15T04:05:59.240Z,100587.44
2023-08-15T04:09:06.859Z,100595.75
2023-08-15T04:12:09.874Z,100595.41
2023-08-15T04:15:13.927Z,100602.38
2023-08-15T04:18:21.462Z,100602.03
2023-08-15T04:21:24.543Z,100591.28
2023-08-15T04:24:29.109Z,100593.59
2023-08-15T04:27:35.343Z,100593.25
2023-08-15T04:30:39.103Z,100599.84
2023-08-15T04:33:42.281Z,100607.00
2023-08-15T04:40:18.077Z,100592.19
2023-08-15T04:43:24.238Z,100602.59
2023-08-15T04:49:55.672Z,100610.50
2023-08-15T04:52:59.415Z,100610.44
2023-08-15T04:56:02.550Z,100609.94
2023-08-15T04:59:06.353Z,100617.50
2023-08-15T05:02:14.325Z,100618.88
2023-08-15T05:05:18.974Z,100621.53
2023-08-15T05:08:22.915Z,100617.41
2023-08-15T05:11:31.392Z,100619.63
2023-08-15T05:14:57.322Z,100625.12
2023-08-15T05:18:07.187Z,100618.28
2023-08-15T05:21:20.714Z,100617.63
2023-08-15T05:28:12.568Z,100633.47
2023-08-15T05:31:48.249Z,100623.47
2023-08-15T05:34:52.558Z,100628.19
2023-08-15T05:38:03.141Z,100628.62
2023-08-15T05:41:06.221Z,100631.56
2023-08-15T05:44:09.600Z,100637.63
2023-08-15T05:47:13.803Z,100640.97
2023-08-15T05:50:19.259Z,100630.09
2023-08-15T05:53:23.161Z,100636.87
2023-08-15T05:56:27.002Z,100647.37
2023-08-15T05:59:29.902Z,100643.13
2023-08-15T06:02:36.896Z,100640.06
2023-08-15T06:05:40.275Z,100642.31
2023-08-15T06:08:45.493Z,100636.81
2023-08-15T06:11:52.299Z,100631.75
2023-08-15T06:14:56.012Z,100637.59
2023-08-15T06:18:00.702Z,100645.59
2023-08-15T06:21:03.298Z,100641.66
2023-08-15T06:24:07.035Z,100648.66
2023-08-15T06:27:14.637Z,100643.53
2023-08-15T06:30:22.211Z,100641.63
2023-08-15T06:33:25.306Z,100633.72
2023-08-15T06:36:29.590Z,100638.13
2023-08-15T06:39:34.317Z,100635.88
2023-08-15T06:42:38.596Z,100646.72
2023-08-15T06:45:43.545Z,100636.47
2023-08-15T06:48:49.737Z,100641.22
2023-08-15T06:51:52.762Z,100637.75
2023-08-15T06:54:56.026Z,100641.84
2023-08-15T06:58:00.046Z,100648.72
2023-08-15T07:01:02.984Z,100643.56
2023-08-15T07:04:06.321Z,100644.75
2023-08-15T07:07:10.100Z,100639.78
2023-08-15T07:10:14.114Z,100631.16
2023-08-15T07:13:16.901Z,100627.25
2023-08-15T07:16:21.252Z,100632.00
2023-08-15T07:19:24.828Z,100631.53
2023-08-15T07:22:27.518Z,100639.41
2023-08-15T07:25:30.531Z,100643.44
2023-08-15T07:28:33.466Z,100655.41
2023-08-15T07:31:37.741Z,100652.50
2023-08-15T07:34:41.427Z,100657.63
2023-08-15T07:37:49.436Z,100661.34
2023-08-15T07:40:54.401Z,100662.88
2023-08-15T07:44:00.734Z,100669.84
2023-08-15T07:47:04.913Z,100666.59
2023-08-15T07:50:18.644Z,100659.53
2023-08-15T07:53:25.995Z,100667.19
2023-08-15T07:56:32.851Z,100666.78
2023-08-15T07:59:36.091Z,100659.53
2023-08-15T08:02:39.721Z,100653.72
2023-08-15T08:05:44.247Z,100673.81
2023-08-15T08:08:48.025Z,100658.28
2023-08-15T08:11:51.755Z,100646.19
2023-08-15T08:14:57.830Z,100640.72
2023-08-15T08:18:03.066Z,100635.09
2023-08-15T08:21:08.276Z,100634.78
2023-08-15T08:24:13.631Z,100628.16
2023-08-15T08:27:17.850Z,100632.75
2023-08-15T08:30:25.822Z,100626.44
2023-08-15T08:33:32.933Z,100630.63
2023-08-15T08:36:36.642Z,100621.84
2023-08-15T08:39:41.383Z,100616.72
2023-08-15T08:42:46.834Z,100627.91
2023-08-15T08:45:52.855Z,100625.03
2023-08-15T08:49:04.029Z,100621.78
2023-08-15T08:52:11.382Z,100624.41
2023-08-15T08:55:16.242Z,100628.03
2023-08-15T08:58:20.329Z,100626.87
2023-08-15T09:01:24.358Z,100629.69
2023-08-15T09:04:28.532Z,100622.31
2023-08-15T09:07:36.859Z,100626.38
2023-08-15T09:10:42.102Z,100618.16
2023-08-15T09:13:54.327Z,100624.31
2023-08-15T09:16:57.628Z,100622.28
2023-08-15T09:20:14.551Z,100620.53
2023-08-15T09:23:18.594Z,100614.06
2023-08-15T09:26:21.661Z,100609.50
2023-08-15T09:29:24.662Z,100609.25
2023-08-15T09:32:28.793Z,100611.88
2023-08-15T09:35:42.587Z,100599.66
2023-08-15T09:38:54.712Z,100606.50
2023-08-15T09:41:57.699Z,100607.56
2023-08-15T09:45:01.605Z,100610.25
2023-08-15T09:48:08.510Z,100609.34
2023-08-15T09:51:14.448Z,100614.16
2023-08-15T09:54:18.452Z,100618.00
2023-08-15T09:57:22.200Z,100616.37
2023-08-15T10:00:25.595Z,100612.38
2023-08-15T10:03:41.533Z,100612.97
2023-08-15T10:06:45.096Z,100604.19
2023-08-15T10:09:49.277Z,100602.34
2023-08-15T10:12:53.503Z,100613.97
2023-08-15T10:15:57.484Z,100607.09
2023-08-15T10:19:00.919Z,100609.59
2023-08-15T10:22:04.541Z,100614.84
2023-08-15T10:25:22.080Z,100616.47
2023-08-15T10:28:28.845Z,100611.56
2023-08-15T10:31:38.808Z,100608.69
2023-08-15T10:34:43.137Z,100614.50
2023-08-15T10:37:51.230Z,100609.94
2023-08-15T10:41:19.762Z,100602.59
2023-08-15T10:44:24.883Z,100595.69
2023-08-15T10:50:45.700Z,100594.31
2023-08-15T10:53:55.100Z,100587.75
2023-08-15T10:57:02.608Z,100591.53
2023-08-15T11:00:07.276Z,100590.22
2023-08-15T11:03:11.129Z,100583.34
2023-08-15T11:06:15.736Z,100586.50
2023-08-15T11:09:21.372Z,100589.41
2023-08-15T11:12:28.856Z,100584.69
2023-08-15T11:15:34.615Z,100579.78
2023-08-15T11:18:38.522Z,100581.91
2023-08-15T11:21:41.941Z,100580.78
2023-08-15T11:24:49.451Z,100574.88
2023-08-15T11:27:53.227Z,100571.97
2023-08-15T11:31:05.611Z,100570.03
2023-08-15T11:34:13.375Z,100557.12
2023-08-15T11:37:16.321Z,100561.41
2023-08-15T11:40:21.392Z,100560.59
2023-08-15T11:43:24.230Z,100564.47
2023-08-15T11:46:33.541Z,100564.62
2023-08-15T11:49:49.408Z,100577.69
2023-08-15T11:52:52.275Z,100578.16
2023-08-15T11:55:57.859Z,100567.72
2023-08-15T11:59:05.950Z,100558.19
2023-08-15T12:02:13.052Z,100564.19
2023-08-15T12:05:18.265Z,100551.00
2023-08-15T12:08:26.480Z,100548.09
2023-08-15T12:11:31.454Z,100551.34
2023-08-15T12:14:49.271Z,100541.16
2023-08-15T12:17:54.599Z,100543.19
2023-08-15T12:20:58.190Z,100533.44
2023-08-15T12:24:03.036Z,100528.66
2023-08-15T12:27:07.669Z,100522.84
2023-08-15T12:30:14.394Z,100521.50
2023-08-15T12:33:35.130Z,100517.16
2023-08-15T12:36:44.406Z,100532.13
2023-08-15T12:39:46.939Z,100534.31
2023-08-15T12:42:50.598Z,100524.56
2023-08-15T12:45:54.303Z,100529.19
2023-08-15T12:49:02.009Z,100531.22
2023-08-15T12:52:07.649Z,100525.09
2023-08-15T12:55:12.203Z,100519.50
2023-08-15T12:58:16.216Z,100523.22
2023-08-15T13:01:19.280Z,100511.69
2023-08-15T13:04:22.281Z,100515.94
2023-08-15T13:07:25.003Z,100509.50
2023-08-15T13:10:27.621Z,100511.13
2023-08-15T13:13:31.228Z,100503.97
2023-08-15T13:16:36.249Z,100497.53
2023-08-15T13:19:39.670Z,100488.59
2023-08-15T13:22:43.508Z,100487.22
2023-08-15T13:25:49.599Z,100480.16
2023-08-15T13:28:55.136Z,100485.25
2023-08-15T13:32:01.476Z,100472.75
2023-08-15T13:35:04.790Z,100473.97
2023-08-15T13:38:08.902Z,100474.44
2023-08-15T13:41:13.885Z,100474.25
2023-08-15T13:44:16.356Z,100470.50
2023-08-15T13:47:20.211Z,100472.94
2023-08-15T13:50:23.438Z,100466.78
2023-08-15T13:53:29.681Z,100460.53
2023-08-15T13:56:33.498Z,100470.69
2023-08-15T13:59:38.129Z,100472.06
2023-08-15T14:02:41.416Z,100468.84
2023-08-15T14:05:44.146Z,100470.78
2023-08-15T14:08:48.533Z,100467.13
2023-08-15T14:11:51.626Z,100459.28
2023-08-15T14:14:56.254Z,100453.94
2023-08-15T14:18:00.145Z,100458.63
2023-08-15T14:21:04.291Z,100456.16
2023-08-15T14:24:07.372Z,100454.34
2023-08-15T14:27:10.963Z,100457.53
2023-08-15T14:30:17.347Z,100469.88
2023-08-15T14:33:21.358Z,100459.69
2023-08-15T14:36:24.766Z,100460.16
2023-08-15T14:39:28.380Z,100452.56
2023-08-15T14:42:34.441Z,100438.16
2023-08-15T14:45:38.050Z,100436.53
2023-08-15T14:48:41.943Z,100440.66
2023-08-15T14:51:44.958Z,100438.16
2023-08-15T14:54:48.891Z,100441.63
2023-08-15T14:57:52.169Z,100437.25
2023-08-15T15:00:55.808Z,100427.75
2023-08-15T15:03:59.137Z,100426.72
2023-08-15T15:07:02.685Z,100425.81
2023-08-15T15:10:06.211Z,100425.84
2023-08-15T15:13:09.366Z,100429.25
2023-08-15T15:16:15.219Z,100434.06
2023-08-15T15:19:18.937Z,100430.22
2023-08-15T15:22:22.007Z,100419.16
2023-08-15T15:25:25.726Z,100418.28
2023-08-15T15:28:29.473Z,100411.56
2023-08-15T15:31:40.092Z,100411.31
2023-08-15T15:34:42.948Z,100412.56
2023-08-15T15:37:46.328Z,100421.69
2023-08-15T15:40:50.630Z,100421.88
2023-08-15T15:43:53.763Z,100408.62
2023-08-15T15:46:58.997Z,100409.63
2023-08-15T15:50:02.874Z,100394.31
2023-08-15T15:53:07.934Z,100387.28
2023-08-15T15:56:14.067Z,100394.81
2023-08-15T15:59:18.082Z,100392.03
2023-08-15T16:02:21.822Z,100397.00
2023-08-15T16:05:25.610Z,100394.94
2023-08-15T16:08:28.897Z,100398.12
2023-08-15T16:11:32.378Z,100397.94
2023-08-15T16:14:35.915Z,100401.25
2023-08-15T16:17:40.365Z,100402.44
2023-08-15T16:20:45.276Z,100404.50
2023-08-15T16:23:49.187Z,100401.88
2023-08-15T16:26:52.825Z,100409.63
2023-08-15T16:30:03.143Z,100407.78
2023-08-15T16:33:14.442Z,100406.28
2023-08-15T16:36:19.900Z,100396.31
2023-08-15T16:39:24.108Z,100403.47
2023-08-15T16:42:33.570Z,100405.25
2023-08-15T16:45:39.093Z,100408.59
2023-08-15T16:48:43.212Z,100408.50
2023-08-15T16:51:47.242Z,100412.12
2023-08-15T16:54:51.974Z,100418.34
2023-08-15T16:57:56.909Z,100409.78
2023-08-15T17:01:00.183Z,100405.34
2023-08-15T17:04:04.162Z,100405.97
2023-08-15T17:07:07.809Z,100406.09
2023-08-15T17:10:11.423Z,100400.59
2023-08-15T17:13:14.263Z,100404.25
2023-08-15T17:16:17.421Z,100407.88
2023-08-15T17:19:21.348Z,100404.72
2023-08-15T17:22:25.183Z,100411.28
2023-08-15T17:25:29.244Z,100399.72
2023-08-15T17:28:33.867Z,100422.00
2023-08-15T17:31:38.349Z,100426.44
2023-08-15T17:34:46.011Z,100424.50
2023-08-15T17:37:49.123Z,100430.00
2023-08-15T17:40:57.912Z,100420.81
2023-08-15T17:44:01.985Z,100407.91
2023-08-15T17:47:08.669Z,100400.53
2023-08-15T17:50:11.269Z,100384.38
2023-08-15T17:53:20.413Z,100384.53
2023-08-15T17:56:28.133Z,100408.38
2023-08-15T17:59:30.976Z,100426.56
2023-08-15T18:02:35.671Z,100434.81
2023-08-15T18:05:39.121Z,100427.22
2023-08-15T18:08:42.521Z,100423.69
2023-08-15T18:11:48.528Z,100424.94
2023-08-15T18:14:52.130Z,100428.06
2023-08-15T18:17:56.242Z,100425.41
2023-08-15T18:21:02.029Z,100432.47
2023-08-15T18:24:06.092Z,100435.97
2023-08-15T18:27:09.406Z,100440.34
2023-08-15T18:30:14.247Z,100447.37
2023-08-15T18:33:17.954Z,100451.53
2023-08-15T18:36:21.039Z,100458.97
2023-08-15T18:39:24.465Z,100460.87
2023-08-15T18:42:26.853Z,100461.94
2023-08-15T18:45:29.586Z,100451.84
2023-08-15T18:48:35.291Z,100445.72
2023-08-15T18:51:39.124Z,100443.69
2023-08-15T18:54:42.696Z,100442.44
2023-08-15T18:57:45.383Z,100433.00
2023-08-15T19:00:52.041Z,100433.63
2023-08-15T19:03:55.826Z,100431.16
2023-08-15T19:07:01.409Z,100422.69
2023-08-15T19:10:05.945Z,100423.72
2023-08-15T19:13:09.319Z,100430.72
2023-08-15T19:16:13.818Z,100431.69
2023-08-15T19:19:18.474Z,100428.34
2023-08-15T19:22:21.461Z,100436.97
2023-08-15T19:25:25.472Z,100443.13
2023-08-15T19:28:32.500Z,100450.69
2023-08-15T19:31:36.727Z,100456.41
2023-08-15T19:34:50.531Z,100451.66
2023-08-15T19:37:53.434Z,100456.72
2023-08-15T19:40:56.717Z,100454.03
2023-08-15T19:44:00.122Z,100455.66
2023-08-15T19:47:04.243Z,100461.16
2023-08-15T19:50:08.428Z,100459.44
2023-08-15T19:53:15.242Z,100465.56
2023-08-15T19:56:19.066Z,100466.31
2023-08-15T19:59:22.140Z,100469.59
2023-08-15T20:02:26.793Z,100468.97
2023-08-15T20:05:31.096Z,100483.03
2023-08-15T20:08:34.254Z,100485.72
2023-08-15T20:11:38.464Z,100497.78
2023-08-15T20:14:42.428Z,100513.00
2023-08-15T20:17:45.452Z,100513.47
2023-08-15T20:20:48.918Z,100513.41
2023-08-15T20:23:52.558Z,100519.13
2023-08-15T20:26:56.087Z,100527.12
2023-08-15T20:30:04.212Z,100525.28
2023-08-15T20:33:08.122Z,100529.25
2023-08-15T20:36:15.015Z,100519.81
2023-08-15T20:39:18.548Z,100522.47
2023-08-15T20:42:22.666Z,100511.81
2023-08-15T20:45:26.031Z,100509.09
2023-08-15T20:48:29.571Z,100506.38
2023-08-15T20:51:34.721Z,100511.44
2023-08-15T20:54:37.133Z,100513.03
2023-08-15T20:57:43.730Z,100511.41
2023-08-15T21:00:52.629Z,100511.59
2023-08-15T21:03:59.813Z,100520.22
2023-08-15T21:07:04.486Z,100519.00
2023-08-15T21:10:08.842Z,100512.72
2023-08-15T21:13:12.223Z,100509.78
2023-08-15T21:16:14.998Z,100497.81
2023-08-15T21:19:20.342Z,100498.34
2023-08-15T21:22:27.445Z,100520.12
2023-08-15T21:25:31.155Z,100509.28
2023-08-15T21:28:36.245Z,100505.41
2023-08-15T21:31:42.456Z,100509.72
2023-08-15T21:34:49.370Z,100501.13
2023-08-15T21:37:53.917Z,100506.22
2023-08-15T21:40:59.116Z,100501.03
2023-08-15T21:44:03.344Z,100502.88
2023-08-15T21:47:06.200Z,100508.78
2023-08-15T21:50:13.034Z,100517.81
2023-08-15T21:53:17.421Z,100511.84
2023-08-15T21:56:20.924Z,100515.06
2023-08-15T21:59:25.168Z,100524.03
2023-08-15T22:02:31.597Z,100523.41
2023-08-15T22:05:35.067Z,100512.53
2023-08-15T22:08:37.960Z,100515.78
2023-08-15T22:11:41.517Z,100515.03
2023-08-15T22:14:44.712Z,100508.28
2023-08-15T22:17:54.768Z,100517.69
2023-08-15T22:21:07.593Z,100522.41
2023-08-15T22:24:10.816Z,100520.69
2023-08-15T22:27:14.811Z,100524.06
2023-08-15T22:30:17.935Z,100519.31
2023-08-15T22:33:26.359Z,100520.09
2023-08-15T22:36:30.734Z,100518.19
2023-08-15T22:39:33.433Z,100524.91
2023-08-15T22:42:39.280Z,100513.88
2023-08-15T22:45:43.428Z,100512.41
2023-08-15T22:48:46.013Z,100510.19
2023-08-15T22:51:50.139Z,100510.81
2023-08-15T22:54:53.613Z,100503.19
2023-08-15T22:57:58.025Z,100506.06
2023-08-15T23:01:13.788Z,100498.06
2023-08-15T23:04:18.179Z,100494.94
2023-08-15T23:07:25.594Z,100496.62
2023-08-15T23:10:29.466Z,100490.34
2023-08-15T23:13:36.858Z,100492.94
2023-08-15T23:16:40.097Z,100492.47
2023-08-15T23:19:44.487Z,100484.00
2023-08-15T23:22:47.265Z,100483.16
2023-08-15T23:25:50.157Z,100480.41
2023-08-15T23:28:53.336Z,100482.28
2023-08-15T23:31:57.097Z,100476.38
2023-08-15T23:35:01.267Z,100477.56
2023-08-15T23:38:06.109Z,100477.84
2023-08-15T23:41:10.104Z,100476.50
2023-08-15T23:44:14.743Z,100475.03
2023-08-15T23:47:18.279Z,100472.09
2023-08-15T23:50:22.869Z,100475.78
2023-08-15T23:53:26.503Z,100471.56
2023-08-15T23:56:31.289Z,100472.75
